sensor_id;sensor_type;location;lat;lon;timestamp;pressure;altitude;pressure_sealevel;temperature;humidity
22582;BME280;47125;48.542;9.052;2022-11-14T00:08:23;95959.53;;;5.57;79.69
22582;BME280;47125;48.542;9.052;2022-11-14T00:18:28;95947.31;;;5.50;79.45
22582;BME280;47125;48.542;9.052;2022-11-14T00:28:31;95947.28;;;5.56;78.61
22582;BME280;47125;48.542;9.052;2022-11-14T00:38:35;95930.22;;;5.39;78.45
22582;BME280;47125;48.542;9.052;2022-11-14T00:48:37;95938.38;;;5.31;78.98
22582;BME280;47125;48.542;9.052;2022-11-14T00:58:41;95932.47;;;5.29;79.16
22582;BME280;47125;48.542;9.052;2022-11-14T01:08:44;95920.03;;;5.30;79.37
22582;BME280;47125;48.542;9.052;2022-11-14T01:18:48;95910.69;;;5.34;80.33
22582;BME280;47125;48.542;9.052;2022-11-14T01:28:50;95898.44;;;5.39;81.30
22582;BME280;47125;48.542;9.052;2022-11-14T01:38:55;95886.22;;;5.38;80.88
22582;BME280;47125;48.542;9.052;2022-11-14T01:48:59;95880.34;;;5.23;80.27
22582;BME280;47125;48.542;9.052;2022-11-14T01:59:04;95876.28;;;5.21;77.86
22582;BME280;47125;48.542;9.052;2022-11-14T02:09:07;95878.75;;;5.16;78.92
22582;BME280;47125;48.542;9.052;2022-11-14T02:19:11;95885.69;;;5.04;82.40
22582;BME280;47125;48.542;9.052;2022-11-14T02:29:16;95888.50;;;5.22;81.44
22582;BME280;47125;48.542;9.052;2022-11-14T02:39:19;95886.50;;;5.11;82.32
22582;BME280;47125;48.542;9.052;2022-11-14T02:49:23;95885.09;;;4.95;81.01
22582;BME280;47125;48.542;9.052;2022-11-14T02:59:25;95895.44;;;4.90;81.08
22582;BME280;47125;48.542;9.052;2022-11-14T03:09:29;95873.69;;;5.01;80.36
22582;BME280;47125;48.542;9.052;2022-11-14T03:19:32;95864.91;;;4.87;79.95
22582;BME280;47125;48.542;9.052;2022-11-14T03:29:35;95855.38;;;4.80;79.83
22582;BME280;47125;48.542;9.052;2022-11-14T03:39:38;95852.09;;;4.97;82.41
22582;BME280;47125;48.542;9.052;2022-11-14T03:49:42;95862.28;;;5.00;82.83
22582;BME280;47125;48.542;9.052;2022-11-14T03:59:45;95883.88;;;4.65;84.77
22582;BME280;47125;48.542;9.052;2022-11-14T04:09:49;95851.50;;;4.69;80.42
22582;BME280;47125;48.542;9.052;2022-11-14T04:19:52;95834.81;;;4.69;81.52
22582;BME280;47125;48.542;9.052;2022-11-14T04:29:56;95850.91;;;4.74;82.52
22582;BME280;47125;48.542;9.052;2022-11-14T04:39:58;95826.22;;;5.06;83.12
22582;BME280;47125;48.542;9.052;2022-11-14T04:50:04;95817.44;;;5.19;83.89
22582;BME280;47125;48.542;9.052;2022-11-14T05:00:07;95829.63;;;5.20;83.38
22582;BME280;47125;48.542;9.052;2022-11-14T05:10:11;95802.75;;;5.23;82.38
22582;BME280;47125;48.542;9.052;2022-11-14T05:20:14;95806.06;;;5.12;82.62
22582;BME280;47125;48.542;9.052;2022-11-14T05:30:18;95802.81;;;5.16;81.92
22582;BME280;47125;48.542;9.052;2022-11-14T05:40:21;95801.38;;;5.14;80.68
22582;BME280;47125;48.542;9.052;2022-11-14T05:50:24;95807.72;;;5.06;81.93
22582;BME280;47125;48.542;9.052;2022-11-14T06:00:27;95812.16;;;5.19;83.81
22582;BME280;47125;48.542;9.052;2022-11-14T06:10:33;95820.75;;;5.08;84.10
22582;BME280;47125;48.542;9.052;2022-11-14T06:20:35;95834.75;;;5.15;82.23
22582;BME280;47125;48.542;9.052;2022-11-14T06:30:39;95821.91;;;5.31;81.70
22582;BME280;47125;48.542;9.052;2022-11-14T06:40:42;95814.66;;;5.65;83.68
22582;BME280;47125;48.542;9.052;2022-11-14T06:50:51;95815.16;;;5.86;86.22
22582;BME280;47125;48.542;9.052;2022-11-14T07:00:54;95813.06;;;5.95;87.13
22582;BME280;47125;48.542;9.052;2022-11-14T07:11:01;95817.63;;;5.88;86.21
22582;BME280;47125;48.542;9.052;2022-11-14T07:21:04;95835.63;;;6.10;84.12
22582;BME280;47125;48.542;9.052;2022-11-14T07:31:09;95841.38;;;6.01;85.17
22582;BME280;47125;48.542;9.052;2022-11-14T07:41:13;95855.53;;;6.20;85.15
22582;BME280;47125;48.542;9.052;2022-11-14T07:51:18;95869.84;;;6.19;88.22
22582;BME280;47125;48.542;9.052;2022-11-14T08:01:21;95890.50;;;6.41;91.74
22582;BME280;47125;48.542;9.052;2022-11-14T08:11:25;95910.56;;;6.62;95.25
22582;BME280;47125;48.542;9.052;2022-11-14T08:21:41;95899.25;;;7.47;93.40
22582;BME280;47125;48.542;9.052;2022-11-14T08:31:45;95882.41;;;7.90;96.46
22582;BME280;47125;48.542;9.052;2022-11-14T08:41:48;95913.94;;;8.04;96.45
22582;BME280;47125;48.542;9.052;2022-11-14T08:51:52;95887.25;;;8.29;96.75
22582;BME280;47125;48.542;9.052;2022-11-14T09:01:54;95886.66;;;8.57;95.91
22582;BME280;47125;48.542;9.052;2022-11-14T09:11:58;95878.84;;;8.73;94.36
22582;BME280;47125;48.542;9.052;2022-11-14T09:22:01;95864.25;;;8.88;94.51
22582;BME280;47125;48.542;9.052;2022-11-14T09:32:04;95871.91;;;9.07;92.63
22582;BME280;47125;48.542;9.052;2022-11-14T09:42:12;95876.56;;;9.35;90.04
22582;BME280;47125;48.542;9.052;2022-11-14T09:52:21;95882.03;;;9.52;88.95
22582;BME280;47125;48.542;9.052;2022-11-14T10:02:32;95865.91;;;9.70;86.19
22582;BME280;47125;48.542;9.052;2022-11-14T10:12:39;95875.28;;;9.72;87.01
22582;BME280;47125;48.542;9.052;2022-11-14T10:22:49;95869.75;;;10.02;86.49
22582;BME280;47125;48.542;9.052;2022-11-14T10:33:07;95873.31;;;10.08;87.03
22582;BME280;47125;48.542;9.052;2022-11-14T10:43:15;95884.34;;;10.23;86.21
22582;BME280;47125;48.542;9.052;2022-11-14T10:53:22;95885.19;;;10.40;86.14
22582;BME280;47125;48.542;9.052;2022-11-14T11:03:38;95878.75;;;10.52;85.28
22582;BME280;47125;48.542;9.052;2022-11-14T11:13:50;95875.69;;;10.61;84.79
22582;BME280;47125;48.542;9.052;2022-11-14T11:23:54;95871.91;;;10.73;83.35
22582;BME280;47125;48.542;9.052;2022-11-14T11:34:02;95872.66;;;10.85;82.56
22582;BME280;47125;48.542;9.052;2022-11-14T11:44:05;95865.88;;;10.78;83.30
22582;BME280;47125;48.542;9.052;2022-11-14T11:54:13;95850.50;;;11.01;82.38
22582;BME280;47125;48.542;9.052;2022-11-14T12:04:17;95841.56;;;11.13;81.24
22582;BME280;47125;48.542;9.052;2022-11-14T12:14:34;95838.47;;;11.37;79.71
22582;BME280;47125;48.542;9.052;2022-11-14T12:24:49;95837.38;;;11.93;76.74
22582;BME280;47125;48.542;9.052;2022-11-14T12:34:55;95847.03;;;12.16;73.94
22582;BME280;47125;48.542;9.052;2022-11-14T12:44:59;95834.09;;;12.35;73.28
22582;BME280;47125;48.542;9.052;2022-11-14T12:55:03;95830.88;;;12.59;72.47
22582;BME280;47125;48.542;9.052;2022-11-14T13:05:15;95824.22;;;13.25;68.16
22582;BME280;47125;48.542;9.052;2022-11-14T13:15:23;95819.91;;;13.66;66.39
22582;BME280;47125;48.542;9.052;2022-11-14T13:25:54;95826.25;;;14.02;67.89
22582;BME280;47125;48.542;9.052;2022-11-14T13:36:20;95827.22;;;13.81;65.46
22582;BME280;47125;48.542;9.052;2022-11-14T13:46:32;95813.59;;;13.88;64.01
22582;BME280;47125;48.542;9.052;2022-11-14T13:56:43;95815.16;;;13.84;64.26
22582;BME280;47125;48.542;9.052;2022-11-14T14:06:55;95802.13;;;13.13;66.40
22582;BME280;47125;48.542;9.052;2022-11-14T14:17:01;95806.53;;;12.98;66.43
22582;BME280;47125;48.542;9.052;2022-11-14T14:27:13;95802.56;;;13.00;66.66
22582;BME280;47125;48.542;9.052;2022-11-14T14:37:20;95811.75;;;12.78;66.37
22582;BME280;47125;48.542;9.052;2022-11-14T14:47:29;95812.47;;;12.68;66.90
22582;BME280;47125;48.542;9.052;2022-11-14T14:57:35;95822.00;;;12.59;67.48
22582;BME280;47125;48.542;9.052;2022-11-14T15:07:37;95822.19;;;12.47;67.77
22582;BME280;47125;48.542;9.052;2022-11-14T15:17:41;95818.84;;;12.35;68.27
22582;BME280;47125;48.542;9.052;2022-11-14T15:27:46;95835.63;;;12.26;68.32
22582;BME280;47125;48.542;9.052;2022-11-14T15:37:59;95844.22;;;12.06;69.33
22582;BME280;47125;48.542;9.052;2022-11-14T15:48:22;95842.53;;;12.00;69.73
22582;BME280;47125;48.542;9.052;2022-11-14T15:58:25;95844.53;;;11.88;70.03
22582;BME280;47125;48.542;9.052;2022-11-14T16:08:29;95839.94;;;11.83;70.10
22582;BME280;47125;48.542;9.052;2022-11-14T16:18:33;95846.84;;;11.79;70.42
22582;BME280;47125;48.542;9.052;2022-11-14T16:28:36;95871.63;;;11.75;70.53
22582;BME280;47125;48.542;9.052;2022-11-14T16:38:40;95870.19;;;11.67;70.78
22582;BME280;47125;48.542;9.052;2022-11-14T16:48:42;95874.28;;;11.53;71.18
22582;BME280;47125;48.542;9.052;2022-11-14T16:58:46;95883.16;;;11.58;71.21
22582;BME280;47125;48.542;9.052;2022-11-14T17:08:51;95883.09;;;11.37;72.33
22582;BME280;47125;48.542;9.052;2022-11-14T17:18:55;95887.16;;;11.39;72.40
22582;BME280;47125;48.542;9.052;2022-11-14T17:28:58;95883.19;;;11.42;72.75
22582;BME280;47125;48.542;9.052;2022-11-14T17:39:01;95888.94;;;11.34;72.95
22582;BME280;47125;48.542;9.052;2022-11-14T17:49:04;95878.63;;;11.42;73.21
22582;BME280;47125;48.542;9.052;2022-11-14T17:59:08;95900.19;;;11.52;72.77
22582;BME280;47125;48.542;9.052;2022-11-14T18:09:10;95897.53;;;11.52;73.01
22582;BME280;47125;48.542;9.052;2022-11-14T18:19:16;95891.41;;;11.57;73.14
22582;BME280;47125;48.542;9.052;2022-11-14T18:29:18;95884.47;;;11.56;73.46
22582;BME280;47125;48.542;9.052;2022-11-14T18:39:22;95884.47;;;11.56;72.48
22582;BME280;47125;48.542;9.052;2022-11-14T18:49:28;95879.94;;;11.56;71.58
22582;BME280;47125;48.542;9.052;2022-11-14T18:59:31;95866.63;;;11.61;71.04
22582;BME280;47125;48.542;9.052;2022-11-14T19:09:34;95866.38;;;11.63;70.72
22582;BME280;47125;48.542;9.052;2022-11-14T19:19:39;95868.56;;;11.66;70.53
22582;BME280;47125;48.542;9.052;2022-11-14T19:29:41;95874.44;;;11.46;72.08
22582;BME280;47125;48.542;9.052;2022-11-14T19:39:46;95879.53;;;11.48;71.30
22582;BME280;47125;48.542;9.052;2022-11-14T19:49:54;95876.31;;;11.13;72.26
22582;BME280;47125;48.542;9.052;2022-11-14T19:59:58;95885.63;;;11.10;73.87
22582;BME280;47125;48.542;9.052;2022-11-14T20:10:00;95889.44;;;10.97;73.22
22582;BME280;47125;48.542;9.052;2022-11-14T20:20:05;95884.91;;;10.98;73.74
22582;BME280;47125;48.542;9.052;2022-11-14T20:30:08;95881.09;;;10.94;74.39
22582;BME280;47125;48.542;9.052;2022-11-14T20:40:12;95879.81;;;10.96;73.48
22582;BME280;47125;48.542;9.052;2022-11-14T20:50:15;95889.69;;;10.96;73.54
22582;BME280;47125;48.542;9.052;2022-11-14T21:00:19;95887.56;;;10.98;72.88
22582;BME280;47125;48.542;9.052;2022-11-14T21:10:21;95872.44;;;11.03;71.69
22582;BME280;47125;48.542;9.052;2022-11-14T21:20:42;95867.97;;;11.26;75.34
22582;BME280;47125;48.542;9.052;2022-11-14T21:30:45;95878.66;;;10.92;73.64
22582;BME280;47125;48.542;9.052;2022-11-14T21:40:52;95881.19;;;10.54;75.10
22582;BME280;47125;48.542;9.052;2022-11-14T21:51:00;95885.19;;;10.68;74.40
22582;BME280;47125;48.542;9.052;2022-11-14T22:01:05;95888.22;;;10.88;73.78
22582;BME280;47125;48.542;9.052;2022-11-14T22:11:08;95880.31;;;10.65;74.59
22582;BME280;47125;48.542;9.052;2022-11-14T22:21:11;95884.84;;;10.65;74.69
22582;BME280;47125;48.542;9.052;2022-11-14T22:31:14;95870.03;;;10.57;75.00
22582;BME280;47125;48.542;9.052;2022-11-14T22:41:20;95865.88;;;10.49;75.25
22582;BME280;47125;48.542;9.052;2022-11-14T22:51:30;95870.19;;;10.50;74.74
22582;BME280;47125;48.542;9.052;2022-11-14T23:01:34;95863.81;;;10.23;76.44
22582;BME280;47125;48.542;9.052;2022-11-14T23:11:37;95876.47;;;10.16;76.50
22582;BME280;47125;48.542;9.052;2022-11-14T23:21:40;95860.72;;;10.03;77.28
22582;BME280;47125;48.542;9.052;2022-11-14T23:31:43;95866.19;;;9.96;78.54
22582;BME280;47125;48.542;9.052;2022-11-14T23:41:47;95861.53;;;9.92;79.25
22582;BME280;47125;48.542;9.052;2022-11-14T23:51:50;95858.78;;;9.87;78.61
